Time;durP1;ratioP1;P1;durP2;ratioP2;P2;SDS_P1;SDS_P2;PMS_P1;PMS_P2;Temp;Humidity;BMP_temperature;BMP_pressure;BME280_temperature;BME280_humidity;BME280_pressure;Samples;Min_cycle;Max_cycle;Signal;HPM_P1;HPM_P2
2022/06/26 00:00:32;;;;;;;4.45;1.70;;;;;;;23.45;52.25;99541.16;4431750;32;32669;-86
2022/06/26 00:03:00;;;;;;;3.10;1.50;;;;;;;23.38;52.59;99549.13;4457600;32;33729;-88
2022/06/26 00:05:28;;;;;;;5.30;1.52;;;;;;;23.29;52.93;99549.75;4444528;32;33360;-88
2022/06/26 00:07:56;;;;;;;4.97;1.70;;;;;;;23.37;52.78;99558.66;4443829;32;33723;-86
2022/06/26 00:10:24;;;;;;;3.35;1.60;;;;;;;23.49;52.51;99545.88;4444763;32;33925;-87
2022/06/26 00:12:51;;;;;;;3.08;1.42;;;;;;;23.31;52.91;99555.06;4444807;32;32628;-87
2022/06/26 00:15:19;;;;;;;3.70;1.48;;;;;;;23.21;53.29;99557.97;4444524;32;33684;-87
2022/06/26 00:17:47;;;;;;;2.65;1.45;;;;;;;23.12;53.58;99568.13;4431947;32;32815;-87
2022/06/26 00:20:21;;;;;;;4.55;1.77;;;;;;;23.15;53.67;99561.94;4444421;32;34033;-87
2022/06/26 00:22:48;;;;;;;4.05;1.62;;;;;;;23.16;53.60;99570.06;4457856;32;33415;-87
2022/06/26 00:25:16;;;;;;;5.57;1.80;;;;;;;23.20;53.65;99571.12;4444680;32;34199;-88
2022/06/26 00:27:46;;;;;;;3.17;1.55;;;;;;;23.14;53.69;99565.87;4429833;32;33963;-86
2022/06/26 00:30:14;;;;;;;6.00;1.80;;;;;;;23.17;53.54;99573.69;4438813;32;32352;-88
2022/06/26 00:32:44;;;;;;;3.12;1.40;;;;;;;23.19;53.57;99572.25;4448177;32;33423;-87
2022/06/26 00:35:12;;;;;;;5.70;1.80;;;;;;;23.09;53.85;99580.75;4446356;32;33946;-85
2022/06/26 00:37:41;;;;;;;3.42;1.80;;;;;;;22.90;54.44;99577.00;4445488;32;32902;-87
2022/06/26 00:40:10;;;;;;;3.97;1.58;;;;;;;22.98;54.27;99577.22;4433049;32;32687;-87
2022/06/26 00:42:38;;;;;;;3.45;1.50;;;;;;;23.01;54.11;99578.59;4445253;32;33209;-86
2022/06/26 00:45:08;;;;;;;3.33;1.80;;;;;;;22.95;54.26;99580.59;4445694;32;34495;-87
2022/06/26 00:47:36;;;;;;;3.53;1.83;;;;;;;22.83;54.64;99582.09;4445171;32;32740;-85
2022/06/26 00:50:07;;;;;;;3.92;1.77;;;;;;;22.88;54.50;99580.09;4432264;32;32432;-87
2022/06/26 00:52:37;;;;;;;2.78;1.70;;;;;;;22.94;54.33;99583.69;4433269;32;31910;-87
2022/06/26 00:55:06;;;;;;;3.80;1.70;;;;;;;22.86;54.51;99584.31;4457061;32;32971;-87
2022/06/26 00:57:35;;;;;;;3.42;1.80;;;;;;;22.86;54.50;99584.31;4443883;32;34176;-87
2022/06/26 01:00:08;;;;;;;4.25;1.80;;;;;;;22.84;54.55;99594.97;4443801;32;34034;-87
2022/06/26 01:02:36;;;;;;;4.97;1.45;;;;;;;22.91;54.25;99595.47;4443407;32;33052;-85
2022/06/26 01:05:05;;;;;;;3.95;1.75;;;;;;;22.89;54.27;99603.31;4443339;32;33571;-86
2022/06/26 01:07:33;;;;;;;3.67;1.73;;;;;;;22.81;54.43;99606.75;4440505;32;34126;-87
2022/06/26 01:10:04;;;;;;;2.83;1.85;;;;;;;22.75;54.55;99599.50;4428349;32;32385;-89
2022/06/26 01:12:32;;;;;;;4.00;1.90;;;;;;;22.77;54.51;99597.22;4443238;32;31700;-88
2022/06/26 01:15:00;;;;;;;3.00;1.60;;;;;;;22.73;54.67;99590.56;4455971;32;34462;-87
2022/06/26 01:17:30;;;;;;;2.78;1.60;;;;;;;22.72;54.66;99594.50;4429511;32;33111;-86
2022/06/26 01:19:59;;;;;;;2.72;1.65;;;;;;;22.74;54.56;99595.03;4433192;32;33329;-87
2022/06/26 01:22:28;;;;;;;3.70;1.73;;;;;;;22.71;54.57;99601.22;4448125;32;31818;-86
2022/06/26 01:24:56;;;;;;;4.80;1.58;;;;;;;22.73;54.50;99602.59;4460913;32;32364;-87
2022/06/26 01:27:25;;;;;;;3.20;1.65;;;;;;;22.75;54.50;99605.09;4448736;32;34429;-87
2022/06/26 01:29:53;;;;;;;5.53;1.92;;;;;;;22.69;54.61;99607.09;4442268;32;32621;-86
2022/06/26 01:32:21;;;;;;;3.42;1.62;;;;;;;22.66;54.64;99611.31;4441693;32;32974;-87
2022/06/26 01:34:50;;;;;;;3.92;1.95;;;;;;;22.66;54.61;99611.31;4434949;32;32039;-87
2022/06/26 01:37:20;;;;;;;3.05;1.70;;;;;;;22.63;54.65;99606.31;4447742;32;34022;-85
2022/06/26 01:39:49;;;;;;;3.08;1.60;;;;;;;22.63;54.83;99605.47;4447588;32;32959;-86
2022/06/26 01:42:17;;;;;;;3.10;1.77;;;;;;;22.60;55.05;99608.84;4435178;32;31943;-86
2022/06/26 01:44:45;;;;;;;4.47;1.65;;;;;;;22.45;55.38;99606.13;4447720;32;32336;-86
2022/06/26 01:47:14;;;;;;;4.50;1.75;;;;;;;22.46;55.21;99605.84;4447591;32;35147;-87
2022/06/26 01:49:42;;;;;;;3.12;1.60;;;;;;;22.46;55.15;99613.41;4447622;32;34122;-87
2022/06/26 01:52:09;;;;;;;4.60;1.67;;;;;;;22.46;55.03;99611.44;4447587;32;32633;-86
2022/06/26 01:54:37;;;;;;;3.53;1.80;;;;;;;22.36;55.44;99619.87;4447601;32;33862;-87
2022/06/26 01:57:08;;;;;;;2.45;1.60;;;;;;;22.38;55.29;99616.81;4447612;32;32904;-88
2022/06/26 01:59:36;;;;;;;5.25;2.00;;;;;;;22.34;55.41;99613.75;4447360;32;32709;-86
2022/06/26 02:02:04;;;;;;;3.65;1.80;;;;;;;22.28;55.63;99612.09;4447736;32;34010;-88
2022/06/26 02:04:31;;;;;;;2.95;1.62;;;;;;;22.31;55.53;99617.97;4447742;32;33653;-87
2022/06/26 02:06:59;;;;;;;3.70;1.90;;;;;;;22.34;55.37;99622.13;4447055;32;33908;-86
2022/06/26 02:15:08;;;;;;;4.28;2.30;;;;;;;22.27;55.55;99625.25;4462284;32;33836;-87
2022/06/26 02:17:39;;;;;;;4.07;2.22;;;;;;;22.35;55.29;99626.59;4434840;32;32211;-87
2022/06/26 02:20:08;;;;;;;5.22;2.30;;;;;;;22.30;55.36;99627.47;4447252;32;32864;-87
2022/06/26 02:22:35;;;;;;;4.90;2.17;;;;;;;22.33;55.27;99629.69;4447097;32;33456;-85
2022/06/26 02:25:06;;;;;;;3.75;2.00;;;;;;;22.29;55.34;99638.94;4460064;32;33715;-89
2022/06/26 02:27:37;;;;;;;3.92;2.30;;;;;;;22.42;54.88;99629.09;4447623;32;35303;-89
2022/06/26 02:30:06;;;;;;;3.12;1.87;;;;;;;22.33;54.98;99637.25;4457970;32;34322;-87
2022/06/26 02:32:34;;;;;;;3.80;2.12;;;;;;;22.25;55.31;99635.87;4456158;32;32861;-85
2022/06/26 02:35:04;;;;;;;4.15;2.37;;;;;;;22.18;55.61;99640.94;4457589;32;34831;-85
2022/06/26 02:37:34;;;;;;;4.62;2.28;;;;;;;22.19;55.49;99642.63;4444937;32;33616;-83
2022/06/26 02:40:04;;;;;;;6.40;2.20;;;;;;;22.07;56.15;99639.34;4450185;32;33468;-85
2022/06/26 02:42:32;;;;;;;5.15;2.28;;;;;;;21.83;56.88;99633.53;4454602;32;33630;-85
2022/06/26 02:45:05;;;;;;;4.30;2.10;;;;;;;21.79;57.21;99646.38;4466866;32;32020;-86
2022/06/26 02:47:33;;;;;;;5.20;2.00;;;;;;;21.90;56.95;99638.81;4453655;32;34495;-87
2022/06/26 02:50:03;;;;;;;6.00;2.22;;;;;;;21.82;57.07;99639.41;4451018;32;34376;-86
2022/06/26 02:52:32;;;;;;;4.25;2.30;;;;;;;21.92;57.04;99647.75;4449837;32;33352;-86
2022/06/26 02:55:00;;;;;;;4.72;2.37;;;;;;;21.92;57.02;99653.34;4462339;32;33902;-86
2022/06/26 02:57:28;;;;;;;4.60;2.35;;;;;;;21.89;57.13;99651.94;4446370;32;32752;-86
2022/06/26 02:59:58;;;;;;;4.90;2.70;;;;;;;22.05;56.68;99655.56;4432021;32;33136;-86
2022/06/26 03:02:25;;;;;;;3.87;2.20;;;;;;;21.83;57.43;99661.47;4445214;32;32585;-86
2022/06/26 03:04:55;;;;;;;6.43;2.67;;;;;;;21.93;57.31;99671.78;4457807;32;34092;-88
2022/06/26 03:07:23;;;;;;;4.97;2.80;;;;;;;21.92;57.41;99676.53;4431248;32;33077;-81
2022/06/26 03:09:50;;;;;;;5.80;2.90;;;;;;;21.99;57.24;99673.44;4430279;32;33152;-81
2022/06/26 03:12:18;;;;;;;4.75;2.70;;;;;;;22.02;57.12;99672.91;4443512;32;31908;-80
2022/06/26 03:14:46;;;;;;;4.82;2.85;;;;;;;21.82;57.89;99678.50;4443588;32;32335;-81
2022/06/26 03:17:15;;;;;;;4.32;2.30;;;;;;;21.87;57.86;99675.72;4443957;32;33912;-80
2022/06/26 03:19:44;;;;;;;6.20;2.50;;;;;;;22.00;57.43;99680.69;4428247;32;31685;-80
2022/06/26 03:22:12;;;;;;;4.78;2.90;;;;;;;21.89;57.82;99679.91;4443004;32;33454;-80
2022/06/26 03:24:40;;;;;;;6.05;2.90;;;;;;;21.84;58.01;99682.69;4443845;32;33588;-81
2022/06/26 03:27:08;;;;;;;4.70;2.67;;;;;;;21.95;57.89;99684.34;4430933;32;33111;-81
2022/06/26 03:29:36;;;;;;;6.07;3.05;;;;;;;22.12;57.29;99685.97;4443751;32;33327;-81
2022/06/26 03:32:07;;;;;;;6.07;3.53;;;;;;;21.95;57.80;99689.94;4444065;32;33355;-79
2022/06/26 03:34:36;;;;;;;5.82;3.40;;;;;;;21.98;57.84;99691.31;4456770;32;33893;-80
2022/06/26 03:37:06;;;;;;;6.40;3.78;;;;;;;22.01;57.97;99690.75;4443586;32;32774;-79
2022/06/26 03:39:35;;;;;;;5.72;3.22;;;;;;;22.10;57.70;99688.25;4436078;32;32324;-80
2022/06/26 03:42:04;;;;;;;6.87;3.90;;;;;;;22.16;57.54;99689.88;4440480;32;34085;-79
2022/06/26 03:44:31;;;;;;;6.70;3.17;;;;;;;22.11;57.67;99696.31;4444114;32;34244;-79
2022/06/26 03:47:02;;;;;;;8.27;3.70;;;;;;;22.21;57.50;99698.25;4443480;32;33088;-79
2022/06/26 03:49:31;;;;;;;6.22;4.03;;;;;;;22.15;57.62;99694.63;4456702;32;33889;-79
2022/06/26 03:52:03;;;;;;;5.12;3.40;;;;;;;22.12;57.95;99691.56;4444002;32;33238;-79
2022/06/26 03:54:33;;;;;;;5.65;3.20;;;;;;;22.14;57.98;99694.91;4443913;32;34473;-79
2022/06/26 03:57:02;;;;;;;5.78;3.25;;;;;;;22.22;57.71;99695.16;4444224;32;34520;-79
2022/06/26 03:59:30;;;;;;;6.93;3.47;;;;;;;22.12;58.08;99698.00;4443681;32;34132;-79
2022/06/26 04:01:58;;;;;;;5.18;2.80;;;;;;;22.18;57.96;99693.22;4444021;32;33226;-79
2022/06/26 04:04:28;;;;;;;5.40;3.00;;;;;;;22.26;57.75;99692.62;4444510;32;33477;-79
2022/06/26 04:07:00;;;;;;;5.97;3.33;;;;;;;22.12;58.33;99688.78;4443469;32;32817;-79
2022/06/26 04:09:28;;;;;;;5.97;2.90;;;;;;;22.24;57.87;99690.13;4435218;32;33424;-78
2022/06/26 04:11:56;;;;;;;5.62;3.15;;;;;;;22.39;57.62;99689.22;4430818;32;31975;-78
2022/06/26 04:14:28;;;;;;;5.30;3.00;;;;;;;22.37;57.86;99694.28;4444612;32;33661;-79
2022/06/26 04:16:56;;;;;;;4.97;3.22;;;;;;;22.21;58.60;99689.84;4455918;32;33025;-78
2022/06/26 04:19:25;;;;;;;4.25;2.80;;;;;;;22.17;58.82;99685.97;4443120;32;33537;-78
2022/06/26 04:21:59;;;;;;;5.35;2.80;;;;;;;22.31;58.37;99695.41;4443699;32;31832;-79
2022/06/26 04:24:27;;;;;;;5.32;2.53;;;;;;;22.29;58.52;99694.88;4443177;32;34529;-78
2022/06/26 04:26:55;;;;;;;5.50;2.60;;;;;;;22.37;58.34;99697.06;4443140;32;33138;-78
2022/06/26 04:29:26;;;;;;;4.95;2.97;;;;;;;22.35;58.64;99693.72;4456406;32;34705;-78
2022/06/26 04:31:54;;;;;;;5.18;3.10;;;;;;;22.37;58.57;99697.06;4443462;32;34013;-78
2022/06/26 04:34:22;;;;;;;6.30;3.30;;;;;;;22.51;58.31;99700.91;4443058;32;33684;-78
2022/06/26 04:36:54;;;;;;;4.80;3.10;;;;;;;22.50;58.69;99702.03;4443452;32;32947;-78
2022/06/26 04:39:22;;;;;;;6.60;3.50;;;;;;;22.53;59.00;99704.28;4456140;32;33895;-78
2022/06/26 04:41:51;;;;;;;6.40;2.90;;;;;;;22.46;59.89;99700.09;4427533;32;31955;-78
2022/06/26 04:44:18;;;;;;;4.47;2.40;;;;;;;22.72;58.90;99700.81;4436711;32;33798;-78
2022/06/26 04:46:47;;;;;;;5.35;2.80;;;;;;;22.63;59.46;99697.78;4430478;32;33897;-80
2022/06/26 04:49:15;;;;;;;4.90;3.00;;;;;;;22.86;58.72;99699.91;4443011;32;34006;-79
2022/06/26 04:51:43;;;;;;;6.12;3.37;;;;;;;22.77;59.34;99700.75;4442753;32;31918;-79
2022/06/26 04:54:17;;;;;;;4.72;2.58;;;;;;;22.88;58.96;99699.59;4444440;32;33836;-79
2022/06/26 04:56:46;;;;;;;4.75;2.70;;;;;;;23.25;57.76;99699.06;4430642;32;32898;-79
2022/06/26 04:59:13;;;;;;;3.85;2.55;;;;;;;23.22;57.84;99700.50;4455907;32;34139;-79
2022/06/26 05:01:41;;;;;;;4.15;2.60;;;;;;;23.23;57.80;99704.97;4430170;32;32910;-79
2022/06/26 05:04:11;;;;;;;4.35;2.70;;;;;;;23.11;58.12;99707.28;4430758;32;32289;-78
2022/06/26 05:06:39;;;;;;;4.87;2.67;;;;;;;23.25;57.81;99705.50;4430460;32;32958;-78
2022/06/26 05:09:10;;;;;;;3.85;2.28;;;;;;;23.42;57.43;99707.03;4443690;32;33722;-78
2022/06/26 05:11:40;;;;;;;3.85;2.33;;;;;;;23.42;57.52;99707.03;4430316;32;31697;-78
2022/06/26 05:14:08;;;;;;;4.07;2.37;;;;;;;23.56;57.30;99710.84;4442882;32;32165;-78
2022/06/26 05:16:38;;;;;;;4.82;2.62;;;;;;;23.74;57.12;99707.31;4429981;32;32986;-78
2022/06/26 05:19:07;;;;;;;4.10;2.28;;;;;;;23.72;56.65;99703.16;4440115;32;32461;-79
2022/06/26 05:21:37;;;;;;;4.40;2.53;;;;;;;23.75;56.50;99700.59;4455522;32;33185;-79
2022/06/26 05:24:05;;;;;;;4.78;2.60;;;;;;;23.89;56.16;99709.13;4443277;32;33815;-79
2022/06/26 05:26:34;;;;;;;5.68;2.97;;;;;;;23.86;56.70;99712.53;4442703;32;34348;-78
2022/06/26 05:29:02;;;;;;;4.22;2.40;;;;;;;24.02;56.77;99710.41;4455708;32;33585;-78
2022/06/26 05:31:30;;;;;;;7.55;2.90;;;;;;;24.22;55.80;99710.16;4442716;32;34096;-77
2022/06/26 05:33:59;;;;;;;3.85;2.40;;;;;;;24.30;55.46;99709.53;4455706;32;33572;-79
2022/06/26 05:36:33;;;;;;;4.10;2.72;;;;;;;23.97;55.65;99709.34;4455223;32;34250;-78
2022/06/26 05:39:00;;;;;;;4.60;2.78;;;;;;;24.10;55.21;99704.97;4454389;32;34527;-78
2022/06/26 05:41:28;;;;;;;4.68;2.70;;;;;;;24.18;55.26;99709.91;4454917;32;33905;-78
2022/06/26 05:43:57;;;;;;;5.10;2.87;;;;;;;24.42;54.94;99709.94;4455409;32;34745;-78
2022/06/26 05:46:26;;;;;;;5.95;2.67;;;;;;;24.42;56.50;99709.94;4455461;32;34369;-78
2022/06/26 05:48:56;;;;;;;5.32;2.62;;;;;;;24.66;55.42;99711.87;4469294;32;33944;-77
2022/06/26 05:51:23;;;;;;;7.87;2.95;;;;;;;24.51;54.82;99702.53;4455237;32;34352;-78
2022/06/26 05:53:54;;;;;;;4.37;2.75;;;;;;;24.37;55.13;99701.59;4455819;32;33698;-78
2022/06/26 05:56:22;;;;;;;4.37;2.58;;;;;;;24.79;54.23;99697.91;4454744;32;32916;-79
2022/06/26 05:58:50;;;;;;;4.85;2.60;;;;;;;24.92;53.83;99707.56;4442365;32;34681;-78
2022/06/26 06:01:18;;;;;;;4.57;2.67;;;;;;;25.03;53.61;99705.47;4455077;32;33461;-78
2022/06/26 06:03:46;;;;;;;7.25;2.70;;;;;;;25.09;54.74;99701.44;4442272;32;33754;-80
2022/06/26 06:06:14;;;;;;;4.72;2.50;;;;;;;25.13;53.48;99708.12;4457334;32;34438;-84
2022/06/26 06:08:45;;;;;;;3.80;2.65;;;;;;;25.33;52.76;99713.41;4437736;32;33315;-84
2022/06/26 06:11:13;;;;;;;7.62;2.70;;;;;;;25.35;52.09;99705.50;4443169;32;33390;-85
2022/06/26 06:13:42;;;;;;;4.00;2.33;;;;;;;25.23;52.64;99713.59;4444486;32;33915;-85
2022/06/26 06:16:09;;;;;;;4.37;2.47;;;;;;;25.25;52.47;99716.91;4444792;32;35255;-85
2022/06/26 06:18:38;;;;;;;3.62;2.17;;;;;;;25.18;51.69;99713.66;4444727;32;33623;-86
2022/06/26 06:21:14;;;;;;;5.53;2.40;;;;;;;25.08;52.03;99711.00;4442987;32;31545;-84
2022/06/26 06:23:43;;;;;;;4.00;2.42;;;;;;;25.60;51.10;99723.91;4431394;32;32421;-84
2022/06/26 06:26:11;;;;;;;5.65;2.40;;;;;;;25.69;51.36;99722.09;4444197;32;33817;-85
2022/06/26 06:28:38;;;;;;;6.37;2.30;;;;;;;25.89;49.51;99724.53;4457319;32;34473;-84
2022/06/26 06:31:07;;;;;;;4.40;2.22;;;;;;;25.89;50.78;99726.53;4457267;32;33236;-85
2022/06/26 06:33:38;;;;;;;5.12;2.08;;;;;;;26.05;49.94;99721.41;4431350;32;33030;-83
2022/06/26 06:36:08;;;;;;;3.22;2.15;;;;;;;26.05;48.83;99725.06;4444196;32;35257;-84
2022/06/26 06:38:39;;;;;;;3.47;1.73;;;;;;;26.09;49.40;99728.91;4457094;32;34853;-83
2022/06/26 06:41:07;;;;;;;4.90;2.10;;;;;;;26.16;48.68;99732.16;4444363;32;32866;-85
2022/06/26 06:43:37;;;;;;;4.00;1.87;;;;;;;26.08;47.93;99732.88;4426184;32;32903;-78
2022/06/26 06:46:14;;;;;;;2.83;1.80;;;;;;;26.32;47.66;99737.53;4452607;32;33993;-84
2022/06/26 06:48:43;;;;;;;4.15;1.77;;;;;;;26.45;47.84;99747.94;4441626;32;34093;-85
2022/06/26 06:51:12;;;;;;;3.83;1.92;;;;;;;26.35;46.92;99742.53;4428483;32;31910;-84
2022/06/26 06:53:40;;;;;;;3.25;1.83;;;;;;;26.47;46.55;99740.88;4434374;32;34593;-84
2022/06/26 06:56:08;;;;;;;18.98;3.00;;;;;;;26.74;46.19;99741.97;4425519;32;34353;-86
2022/06/26 06:58:57;;;;;;;10.80;2.60;;;;;;;26.82;46.48;99744.88;4443674;32;32718;-84
2022/06/26 07:01:44;;;;;;;6.45;2.12;;;;;;;26.86;46.96;99745.91;4438363;32;32196;-84
2022/06/26 07:04:54;;;;;;;2.35;1.45;;;;;;;26.95;46.15;99748.81;4423501;32;33320;-85
2022/06/26 07:07:41;;;;;;;6.15;1.70;;;;;;;26.95;45.27;99748.81;4413330;32;33019;-80
2022/06/26 07:10:36;;;;;;;4.75;1.40;;;;;;;27.26;44.85;99746.19;4414840;32;34128;-80
2022/06/26 07:13:27;;;;;;;3.50;1.48;;;;;;;26.99;44.36;99743.44;4425362;32;31641;-86
2022/06/26 07:16:20;;;;;;;3.45;1.87;;;;;;;27.20;43.87;99745.47;4425635;32;34741;-82
2022/06/26 07:19:10;;;;;;;3.85;1.40;;;;;;;27.22;44.17;99737.53;4438495;32;34635;-78
2022/06/26 07:22:05;;;;;;;3.05;1.50;;;;;;;27.21;43.14;99738.69;4425654;32;32645;-78
2022/06/26 07:24:46;;;;;;;5.78;1.95;;;;;;;27.33;42.66;99749.34;4413067;32;32018;-82
2022/06/26 07:27:16;;;;;;;2.92;1.42;;;;;;;27.59;43.11;99745.91;4412616;32;32700;-83
2022/06/26 07:29:44;;;;;;;3.87;1.90;;;;;;;27.77;43.35;99745.75;4410477;32;32983;-83
2022/06/26 07:32:15;;;;;;;2.62;1.40;;;;;;;27.77;43.88;99740.13;4438833;32;33900;-82
2022/06/26 07:34:46;;;;;;;2.47;1.50;;;;;;;27.71;42.17;99740.56;4438472;32;33414;-83
2022/06/26 07:37:14;;;;;;;5.20;1.80;;;;;;;27.64;42.33;99740.19;4412332;32;32526;-83
2022/06/26 07:39:43;;;;;;;3.62;1.67;;;;;;;27.85;42.96;99736.53;4425326;32;33752;-83
2022/06/26 07:42:12;;;;;;;3.50;1.80;;;;;;;28.03;42.00;99736.59;4425572;32;32587;-83
2022/06/26 07:44:42;;;;;;;4.22;1.87;;;;;;;28.00;41.72;99728.78;4425586;32;33224;-85
2022/06/26 07:47:10;;;;;;;2.90;1.25;;;;;;;28.14;41.72;99740.81;4437260;32;33322;-85
2022/06/26 07:50:01;;;;;;;1.90;1.12;;;;;;;28.19;39.09;99737.84;4435578;32;34547;-84
2022/06/26 07:52:54;;;;;;;2.58;1.20;;;;;;;28.32;39.58;99728.47;4423817;32;34326;-83
2022/06/26 07:55:42;;;;;;;4.20;1.20;;;;;;;28.41;40.25;99725.69;4413592;32;31629;-83
2022/06/26 07:58:34;;;;;;;5.70;1.45;;;;;;;28.53;40.31;99732.38;4428394;32;32062;-84
2022/06/26 08:01:26;;;;;;;16.03;2.43;;;;;;;28.53;39.82;99725.91;4429776;32;35248;-84
2022/06/26 08:04:09;;;;;;;2.40;1.30;;;;;;;28.65;39.45;99726.06;4428571;32;33991;-80
2022/06/26 08:07:04;;;;;;;3.85;1.35;;;;;;;28.74;38.63;99731.75;4428683;32;33378;-82
2022/06/26 08:09:57;;;;;;;3.00;1.23;;;;;;;28.91;38.42;99726.16;4410782;32;32331;-82
2022/06/26 08:12:52;;;;;;;2.70;1.40;;;;;;;28.98;38.97;99731.34;4425305;32;32923;-81
2022/06/26 08:15:22;;;;;;;3.50;1.10;;;;;;;29.04;38.47;99736.50;4437532;32;34491;-81
2022/06/26 08:17:50;;;;;;;3.90;1.20;;;;;;;29.00;36.27;99729.84;4438104;32;33497;-82
2022/06/26 08:20:20;;;;;;;2.53;1.48;;;;;;;29.25;37.10;99731.00;4412844;32;33644;-82
2022/06/26 08:22:49;;;;;;;3.20;1.20;;;;;;;29.29;37.54;99734.00;4438238;32;35586;-82
2022/06/26 08:25:16;;;;;;;8.02;1.80;;;;;;;29.47;36.97;99727.22;4412972;32;34997;-83
2022/06/26 08:27:47;;;;;;;3.83;1.40;;;;;;;29.56;37.61;99719.56;4433600;32;34217;-83
2022/06/26 08:30:20;;;;;;;1.60;0.90;;;;;;;29.56;37.97;99730.88;4437843;32;34613;-83
2022/06/26 08:32:48;;;;;;;1.95;1.10;;;;;;;29.73;36.25;99733.69;4434199;32;34425;-82
2022/06/26 08:35:16;;;;;;;3.60;1.00;;;;;;;29.69;35.35;99729.03;4425055;32;33951;-81
2022/06/26 08:37:46;;;;;;;7.72;2.00;;;;;;;29.82;35.72;99730.84;4421059;32;31552;-81
2022/06/26 08:40:16;;;;;;;3.28;1.05;;;;;;;30.03;35.32;99730.97;4424799;32;33367;-83
2022/06/26 08:42:48;;;;;;;5.25;1.35;;;;;;;30.03;33.63;99742.28;4425098;32;34949;-83
2022/06/26 08:45:18;;;;;;;1.60;0.95;;;;;;;30.06;32.99;99739.59;4437673;32;33920;-82
2022/06/26 08:47:50;;;;;;;1.67;1.08;;;;;;;30.22;33.47;99733.41;4425133;32;32692;-83
2022/06/26 08:50:24;;;;;;;2.15;1.02;;;;;;;30.28;33.46;99732.88;4425097;32;34195;-82
2022/06/26 08:52:53;;;;;;;1.98;1.00;;;;;;;30.26;32.20;99723.88;4424837;32;33886;-82
2022/06/26 08:55:22;;;;;;;4.80;1.30;;;;;;;30.43;33.07;99732.31;4424929;32;34515;-81
2022/06/26 08:57:53;;;;;;;2.35;0.95;;;;;;;30.77;33.12;99731.31;4425064;32;33142;-82
2022/06/26 09:00:24;;;;;;;2.85;1.05;;;;;;;30.96;32.64;99724.38;4424823;32;32051;-83
2022/06/26 09:03:00;;;;;;;2.28;1.25;;;;;;;30.92;32.42;99726.22;4425756;32;32982;-82
2022/06/26 09:05:29;;;;;;;5.90;3.03;;;;;;;31.22;32.01;99727.00;4425318;32;34867;-83
2022/06/26 09:07:59;;;;;;;3.85;1.83;;;;;;;31.20;31.90;99729.41;4425025;32;33093;-82
2022/06/26 09:10:37;;;;;;;2.12;1.15;;;;;;;31.14;31.03;99727.94;4438783;32;33717;-82
2022/06/26 09:13:08;;;;;;;4.40;1.37;;;;;;;31.27;28.87;99719.13;4424850;32;33129;-83
2022/06/26 09:15:41;;;;;;;2.58;1.33;;;;;;;31.51;29.85;99726.94;4424820;32;32520;-83
2022/06/26 09:18:12;;;;;;;1.50;0.90;;;;;;;31.61;29.94;99726.50;4438997;32;34220;-84
2022/06/26 09:20:54;;;;;;;2.95;1.20;;;;;;;31.49;30.00;99717.13;4424778;32;32285;-84
2022/06/26 09:23:22;;;;;;;2.05;0.95;;;;;;;31.81;30.97;99721.19;4438549;32;35327;-83
2022/06/26 09:26:01;;;;;;;2.62;1.20;;;;;;;31.75;29.33;99720.56;4425532;32;34073;-83
2022/06/26 09:28:30;;;;;;;1.90;1.20;;;;;;;32.03;30.28;99724.41;4437427;32;33272;-80
2022/06/26 09:31:02;;;;;;;2.75;1.40;;;;;;;31.93;29.90;99719.19;4437312;32;34458;-82
2022/06/26 09:33:32;;;;;;;4.97;1.60;;;;;;;32.21;30.61;99715.69;4411969;32;33027;-83
2022/06/26 09:36:01;;;;;;;3.78;1.40;;;;;;;32.38;30.96;99718.34;4436093;32;34238;-84
2022/06/26 09:38:31;;;;;;;3.33;1.35;;;;;;;32.51;31.27;99719.16;4434643;32;32944;-83
2022/06/26 09:41:16;;;;;;;1.23;0.98;;;;;;;32.49;30.78;99710.19;4439097;32;33593;-83
2022/06/26 09:43:55;;;;;;;;;;;;;;;32.55;29.19;99715.25;4439283;32;35209;-83
2022/06/26 09:46:49;;;;;;;2.72;1.23;;;;;;;32.95;29.54;99717.41;4439037;32;35006;-83
2022/06/26 09:49:38;;;;;;;2.62;1.60;;;;;;;32.93;29.51;99714.91;4426369;32;31837;-82
2022/06/26 09:52:28;;;;;;;2.67;1.10;;;;;;;33.11;29.43;99708.97;4427018;32;32345;-83
2022/06/26 09:55:13;;;;;;;2.67;1.17;;;;;;;33.08;29.70;99721.88;4439329;32;34520;-85
2022/06/26 09:58:05;;;;;;;3.17;1.37;;;;;;;33.06;28.57;99715.72;4424771;32;33475;-82
2022/06/26 10:07:19;;;;;;;3.85;1.33;;;;;;;33.99;29.53;99711.59;4429670;32;33775;-81
2022/06/26 10:09:51;;;;;;;2.97;1.10;;;;;;;34.18;27.16;99707.19;4425971;32;33403;-82
2022/06/26 10:13:19;;;;;;;3.42;1.40;;;;;;;34.14;26.98;99709.13;4426112;32;32759;-81
2022/06/26 10:16:18;;;;;;;;;;;;;;;34.19;28.42;99712.53;4427707;32;32465;-83
2022/06/26 10:19:18;;;;;;;1.70;1.12;;;;;;;33.96;27.49;99700.09;4426185;32;35664;-84
2022/06/26 10:21:47;;;;;;;3.08;1.35;;;;;;;33.96;28.42;99702.94;4426104;32;32645;-82
2022/06/26 10:24:17;;;;;;;2.67;1.10;;;;;;;33.42;27.47;99703.44;4426226;32;32681;-84
2022/06/26 10:27:03;;;;;;;3.03;1.30;;;;;;;33.52;27.72;99702.91;4438906;32;33641;-84
2022/06/26 10:29:40;;;;;;;2.35;1.40;;;;;;;33.61;28.62;99703.59;4438773;32;35369;-82
2022/06/26 10:32:22;;;;;;;2.67;1.42;;;;;;;33.60;28.69;99693.38;4425841;32;32108;-82
2022/06/26 10:34:56;;;;;;;4.47;1.33;;;;;;;33.32;29.11;99689.72;4438790;32;34115;-81
2022/06/26 10:37:24;;;;;;;3.75;1.45;;;;;;;33.36;29.04;99699.19;4438509;32;34608;-82
2022/06/26 10:39:54;;;;;;;4.32;1.42;;;;;;;33.64;29.36;99691.47;4425973;32;32854;-82
2022/06/26 10:45:31;;;;;;;2.67;1.40;;;;;;;33.68;28.84;99700.94;4438953;32;33991;-83
2022/06/26 10:48:18;;;;;;;2.08;1.23;;;;;;;33.50;28.27;99698.78;4438661;32;33969;-82
2022/06/26 10:51:06;;;;;;;2.50;1.60;;;;;;;33.37;28.93;99695.97;4438149;32;35175;-83
2022/06/26 10:53:39;;;;;;;4.35;2.05;;;;;;;33.11;30.17;99701.25;4425992;32;34640;-83
2022/06/26 10:56:10;;;;;;;5.43;1.70;;;;;;;33.05;29.72;99709.22;4438684;32;34268;-82
2022/06/26 10:58:42;;;;;;;4.85;1.62;;;;;;;32.89;30.53;99705.44;4438556;32;32233;-82
2022/06/26 11:01:11;;;;;;;3.25;1.60;;;;;;;32.94;30.49;99699.50;4425823;32;34626;-83
2022/06/26 11:03:41;;;;;;;5.78;1.42;;;;;;;33.21;30.90;99697.06;4438538;32;33774;-83
2022/06/26 11:06:14;;;;;;;4.28;1.55;;;;;;;33.41;29.84;99693.22;4425828;32;32010;-85
2022/06/26 11:08:45;;;;;;;2.58;1.42;;;;;;;33.74;29.78;99695.81;4426055;32;33677;-85
2022/06/26 11:11:20;;;;;;;25.55;2.83;;;;;;;34.13;29.04;99699.75;4438419;32;35365;-87
2022/06/26 11:13:56;;;;;;;6.78;1.87;;;;;;;33.95;29.15;99692.75;4438526;32;34702;-85
2022/06/26 11:16:33;;;;;;;2.25;1.40;;;;;;;33.65;29.94;99687.44;4426009;32;31923;-84
2022/06/26 11:19:05;;;;;;;5.45;1.60;;;;;;;33.02;28.56;99695.72;4438714;32;33828;-84
2022/06/26 11:21:33;;;;;;;4.10;1.50;;;;;;;33.85;28.44;99696.13;4438678;32;34625;-84
2022/06/26 11:24:01;;;;;;;4.03;1.70;;;;;;;34.06;29.76;99690.19;4425677;32;33419;-85
2022/06/26 11:26:36;;;;;;;7.25;1.73;;;;;;;34.33;29.49;99690.13;4426016;32;31806;-84
2022/06/26 11:29:09;;;;;;;4.87;1.73;;;;;;;34.50;28.37;99688.09;4425359;32;32305;-83
2022/06/26 11:31:47;;;;;;;3.53;1.70;;;;;;;34.69;28.94;99688.16;4425742;32;33881;-84
2022/06/26 11:34:20;;;;;;;7.10;1.52;;;;;;;34.83;28.46;99694.22;4425713;32;34170;-84
2022/06/26 11:49:39;;;;;;;4.22;1.50;;;;;;;34.74;26.43;99673.63;4507369;31;154911;-85
2022/06/26 11:52:10;;;;;;;6.90;1.50;;;;;;;34.74;26.43;99673.63;4483603;32;33451;-85
2022/06/26 11:54:41;;;;;;;3.42;1.40;;;;;;;34.72;25.44;99658.91;4483494;32;34279;-85
2022/06/26 11:57:12;;;;;;;3.80;1.62;;;;;;;34.91;24.82;99664.69;4497795;31;34559;-85
2022/06/26 11:59:42;;;;;;;4.28;1.58;;;;;;;35.28;24.84;99665.06;4496617;31;34260;-85
2022/06/26 12:02:23;;;;;;;3.75;1.37;;;;;;;35.61;24.26;99667.41;4483679;32;33176;-85
2022/06/26 12:05:10;;;;;;;3.37;1.48;;;;;;;35.87;23.65;99668.75;4483465;32;33009;-86
2022/06/26 12:07:43;;;;;;;5.87;1.42;;;;;;;36.06;22.04;99667.88;4483185;32;35180;-84
2022/06/26 12:10:11;;;;;;;2.90;1.48;;;;;;;36.14;21.80;99669.66;4483579;32;34363;-87
2022/06/26 12:12:49;;;;;;;4.28;1.58;;;;;;;36.17;21.69;99664.00;4483364;32;33824;-85
2022/06/26 12:15:17;;;;;;;3.65;1.58;;;;;;;36.44;21.89;99658.31;4470093;32;32271;-84
2022/06/26 12:18:04;;;;;;;3.30;2.05;;;;;;;36.31;21.38;99660.59;4469926;32;34050;-85
2022/06/26 12:20:38;;;;;;;6.20;1.77;;;;;;;36.57;21.17;99657.72;4496160;32;34507;-85
2022/06/26 12:23:07;;;;;;;5.60;2.08;;;;;;;36.56;20.60;99655.25;4470255;32;32777;-86
2022/06/26 12:25:42;;;;;;;3.60;1.67;;;;;;;36.61;21.33;99652.06;4483328;32;34451;-86